Observations for LONDON GATWICK ARPT, United Kingdom (EGKK)

EGKK 211750Z 15002KT 3800 RA BKN004 OVC007 06/06 Q1007  
EGKK 211720Z VRB02KT 4000 RA OVC004 06/06 Q1007 
EGKK 211650Z 16004KT 110V250 5000 RA OVC004 06/05 Q1008 
EGKK 211620Z VRB03KT 9999 -RA OVC005 06/05 Q1008
EGKK 211550Z 16006KT 090V200 9999 -RA BKN005 06/05 Q1009
EGKK 211520Z 15006KT 120V200 9999 -RA BKN005 05/05 Q1009
EGKK 211450Z 14006KT 090V180 9999 -RA BKN005 05/05 Q1010
EGKK 211420Z 14006KT 7000 -RA BKN005 05/04 Q1010
EGKK 211350Z 13005KT 100V180 5000 -RA BKN004 04/04 Q1011 REDZ   
EGKK 211320Z 12004KT 4000 DZ BKN004 04/03 Q1012 
EGKK 211250Z 11005KT 3000 -RA BKN005 03/02 Q1012
EGKK 211220Z 11007KT 3100 -RA BKN006 03/02 Q1013
EGKK 211150Z 12006KT 4900 -RA SCT004 BKN007 02/02 Q1013 
EGKK 211120Z 12005KT 5000 -RA BKN005 BKN011 02/01 Q1014 
EGKK 211050Z 11004KT 6000 -RASN BKN004 BKN031 01/01 Q1014   
EGKK 211020Z 12006KT 3100 -SN FEW004 BKN017 BKN022 01/01 Q1015  
EGKK 210950Z 11005KT 2500 -RASN SCT005 OVC018 01/01 Q1015   
EGKK 210920Z 12004KT 080V150 3000 -RASN SCT004 BKN021 02/01 Q1016   
EGKK 210850Z VRB03KT 3200 -RA FEW005 BKN017 BKN022 02/01 Q1016  
EGKK 210820Z VRB03KT 3800 -RA BKN017 BKN023 BKN031 02/01 Q1016  
EGKK 210750Z VRB02KT 3900 HZ FEW005 SCT043 02/01 Q1015  
EGKK 210720Z VRB02KT 4900 BR NSC 02/01 Q1015
EGKK 210650Z VRB02KT 5000 HZ NSC 02/01 Q1015
EGKK 210620Z 21003KT 6000 NSC 02/01 Q1014   
EGKK 210550Z 26003KT 6000 NSC 01/01 Q1015   
EGKK 210520Z 25002KT 7000 FEW006 01/01 Q1014
EGKK 210450Z 26003KT 8000 FEW006 01/01 Q1014
EGKK 210420Z VRB02KT 8000 FEW007 02/01 Q1014
EGKK 210350Z 32005KT 9000 SCT007 02/01 Q1014
EGKK 210320Z 32005KT 9000 BKN008 02/01 Q1014
EGKK 210250Z 33004KT 9000 BKN008 02/01 Q1014
EGKK 210220Z 30006KT 9999 BKN009 02/01 Q1013
EGKK 210150Z 29004KT 9999 BKN010 02/01 Q1013
EGKK 210120Z 35005KT 9999 BKN011 03/01 Q1013
EGKK 210050Z 32005KT 9999 BKN011 02/01 Q1012
EGKK 210020Z 32006KT 9999 BKN011 02/01 Q1012
EGKK 202350Z 32005KT 9999 BKN012 03/02 Q1011
EGKK 202320Z 33006KT 290V350 9999 BKN012 03/02 Q1010
EGKK 202250Z 33007KT 270V340 9999 FEW008 BKN012 02/02 Q1009 
EGKK 202220Z 31005KT 9999 FEW008 BKN026 03/01 Q1009 
EGKK 202150Z 33006KT 290V010 8000 BKN006 BKN009 03/02 Q1008 
EGKK 202120Z 36007KT 310V020 6000 BKN006 BKN008 03/02 Q1007 
EGKK 202050Z 35008KT 320V030 8000 BKN006 03/02 Q1007
EGKK 202020Z 36006KT 320V030 9000 BKN006 03/03 Q1006
EGKK 201950Z 02006KT 340V050 9999 BKN007 03/03 Q1005
EGKK 201920Z 02009KT 350V050 9999 BKN006 04/03 Q1004
EGKK 201850Z 36007KT 320V030 9999 BKN005 04/03 Q1003
EGKK 201820Z 03006KT 340V050 9999 BKN006 04/04 Q1002
EGKK 201750Z 02007KT 9999 BKN007 04/04 Q1001
EGKK 201720Z 02006KT 9999 SCT005 BKN007 05/04 Q1000